UNEE/KEJ METAR and TAF weather

Enter ICAO airport designator
Station Type Date Time Source
UNEE METAR 2021/01/22 06:00 UTC NOAA

UNEE 220600Z 25006MPS 4800 -SN OVC026 M12/M14 Q1005 R23/491034 NOSIG RMK QFE731


Station Type Date Time Source
UNEE Decoded METAR 2021/01/22 06:00 UTC NOAA

Kemerovo, Russia (UNEE) 55-19-48N 086-04-48E
Jan 22, 2021 - 01:00 AM EST / 2021.01.22 0600 UTC
Wind: from the WSW (250 degrees) at 13 MPH (12 KT):0
Visibility: 2 mile(s):0
Sky conditions: overcast
Weather: light snow
Temperature: 10 F (-12 C)
Windchill: -5 F (-21 C):2
Dew Point: 6 F (-14 C)
Relative Humidity: 85%
Pressure (altimeter): 29.68 in. Hg (1005 hPa)
ob: UNEE 220600Z 25006MPS 4800 -SN OVC026 M12/M14 Q1005 R23/491034 NOSIG RMK QFE731
cycle: 6

Station Type Date Time Source
UNEE TAF 2021/01/22 06:21 UTC NOAA

TAF UNEE 220500Z 2206/2306 25003G08MPS 6000 -SHSN BKN030CB
TEMPO 2206/2210 1500 SHSN BKN005 BKN010CB
BECMG 2219/2221 18003G08MPS

Example: see airport list